Nearby METAR Reports

 

EGVN - Brize Norton Raf, United Kingdom
Distance from station: SSE 20mi, 32km
Updated: 25/04/2018 14:50
Nearby showers, Few clouds
Nearby showers, Few clouds
 Wind from W
Wind: W 14 mph , 22 km/h, Gust: 29 mph , 46 km/h
Temperature: 14°C
Dew Point: 2°C
Humidity: 44%
Barometer: 1011 hPa
Summary: Nearby Showers
Clouds: Few Clouds
Visibility: 6 miles , 10 km
Cloud details: Few Clouds 1036 m
2018/04/25 13:50 EGVN 251350Z 26012G25KT 9999 VCSH FEW034CB 14/02 Q1011 BLU TEMPO 6000 -SHRA SCT022CB WHT
EGTK - Oxford, United Kingdom
Distance from station: SE 22mi, 35km
Updated: 25/04/2018 14:50
Partly cloudy
Partly cloudy
 Wind from WSW
Wind: WSW 21 mph , 33 km/h
Temperature: 13°C
Dew Point: 6°C
Humidity: 63%
Barometer: 1011 hPa
Clouds: Partly cloudy
Visibility: 6 miles , 10 km
Cloud details: Partly cloudy 1097 m
2018/04/25 13:50 EGTK 251350Z 24018KT 9999 SCT036 13/06 Q1011
 
EGBJ - Staverton (priva, United Kingdom
Distance from station: WSW 23mi, 36km
Updated: 25/04/2018 14:50
Nearby showers, Partly cloudy
Nearby showers, Partly cloudy
 Wind from WSW
Wind: WSW 14 mph , 22 km/h, Gust: 26 mph , 43 km/h
Temperature: 14°C
Dew Point: 7°C
Humidity: 63%
Barometer: 1011 hPa
Summary: Nearby Showers
Clouds: Partly cloudy
Visibility: 6 miles , 10 km
Cloud details: Few Clouds 457 m
Partly cloudy 762 m
2018/04/25 13:50 EGBJ 251350Z 25012G23KT 210V270 9999 VCSH FEW015CB SCT025 14/07 Q1011
EGVA - Fairford Raf, United Kingdom
Distance from station: S 27mi, 43km
Updated: 25/04/2018 13:56
Few Clouds
Few Clouds
 Wind from WSW
Wind: WSW 17 mph , 28 km/h, Gust: 29 mph , 46 km/h
Temperature: 13°C
Dew Point: 6°C
Humidity: 63%
Barometer: 1011.2 hPa
Clouds: Few Clouds
Visibility: 6 miles , 10 km
Cloud details: Few Clouds 4877 m
2018/04/25 12:56 EGVA 251256Z AUTO 24015G25KT 9999 FEW160 13/06 A2986 RMK AO2 PK WND 25031/24 SLP116 T01310057 $
 
EGBB - Birmingham Airpo, United Kingdom
Distance from station: N 29mi, 46km
Updated: 25/04/2018 14:50
Nearby showers, Partly cloudy
Nearby showers, Partly cloudy
 Wind from WSW
Wind: WSW 12 mph , 19 km/h
Temperature: 11°C
Dew Point: 6°C
Humidity: 72%
Barometer: 1010 hPa
Summary: Nearby Showers
Clouds: Partly cloudy
Visibility: 6 miles , 10 km
Cloud details: Few Clouds 701 m
Partly cloudy 1280 m
2018/04/25 13:50 EGBB 251350Z 24010KT 200V270 9999 VCSH FEW023 SCT042CB 11/06 Q1010
EGUB - Benson Raf, United Kingdom
Distance from station: SE 40mi, 65km
Updated: 25/04/2018 14:50
Partly cloudy
Partly cloudy
 Wind from SW
Wind: SW 18 mph , 30 km/h
Temperature: 13°C
Dew Point: 5°C
Humidity: 59%
Barometer: 1011 hPa
Clouds: Partly cloudy
Visibility: 6 miles , 10 km
Cloud details: Partly cloudy 1219 m
2018/04/25 13:50 EGUB 251350Z 23016KT 9999 SCT040 13/05 Q1011 BLU NOSIG
 
EGTC - Cranfield, United Kingdom
Distance from station: E 46mi, 74km
Updated: 25/04/2018 14:50
Nearby showers, Partly cloudy
Nearby showers, Partly cloudy
 Wind from SW
Wind: SW 15 mph , 24 km/h
Temperature: 10°C
Wind Chill: 7°C
Dew Point: 7°C
Humidity: 82%
Barometer: 1010 hPa
Summary: Nearby Showers
Clouds: Partly cloudy
Visibility: 4 miles , 6 km
Cloud details: Partly cloudy 1067 m
2018/04/25 13:50 EGTC 251350Z 23013KT 6000 VCSH SCT035CB 10/07 Q1010
EGWC - Cosford Raf, United Kingdom
Distance from station: NNW 46mi, 75km
Updated: 25/04/2018 13:50
Partly cloudy
Partly cloudy
 Wind from WSW
Wind: WSW 9 mph , 15 km/h
Temperature: 12°C
Dew Point: 6°C
Humidity: 67%
Barometer: 1010 hPa
Clouds: Partly cloudy
Visibility: 6 miles , 10 km
Cloud details: Partly cloudy 914 m
2018/04/25 12:50 EGWC 251250Z 25008KT 9999 SCT030 12/06 Q1010 BLU